createdAt,value
2017-10-12T00:00:43.542Z,978.8
2017-10-12T00:01:45.431Z,978.8
2017-10-12T00:02:47.421Z,978.8
2017-10-12T00:03:49.404Z,978.7
2017-10-12T00:04:51.367Z,978.7
2017-10-12T00:05:53.354Z,978.7
2017-10-12T00:06:55.301Z,978.7
2017-10-12T00:07:57.246Z,978.7
2017-10-12T00:08:59.107Z,978.8
2017-10-12T00:10:01.000Z,978.7
2017-10-12T00:11:02.980Z,978.8
2017-10-12T00:12:05.276Z,978.7
2017-10-12T00:13:07.180Z,978.7
2017-10-12T00:14:09.176Z,978.7
2017-10-12T00:15:11.402Z,978.7
2017-10-12T00:16:14.974Z,978.7
2017-10-12T00:17:17.914Z,978.8
2017-10-12T00:18:20.649Z,978.9
2017-10-12T00:19:22.671Z,978.8
2017-10-12T00:20:24.659Z,978.8
2017-10-12T00:21:26.613Z,978.8
2017-10-12T00:22:28.628Z,978.8
2017-10-12T00:23:30.517Z,978.7
2017-10-12T00:24:32.497Z,979
2017-10-12T00:25:34.541Z,978.6
2017-10-12T00:26:36.445Z,978.8
2017-10-12T00:27:38.382Z,978.8
2017-10-12T00:28:40.352Z,978.8
2017-10-12T00:29:42.283Z,978.7
2017-10-12T00:30:44.212Z,978.7
2017-10-12T00:31:46.148Z,978.4
2017-10-12T00:32:48.018Z,978.5
2017-10-12T00:33:49.979Z,978.8
2017-10-12T00:34:51.939Z,978.4
2017-10-12T00:35:53.979Z,978.5
2017-10-12T00:36:55.869Z,978.4
2017-10-12T00:37:57.834Z,978.6
2017-10-12T00:38:59.831Z,978.5
2017-10-12T00:40:02.530Z,978.5
2017-10-12T00:41:04.486Z,978.5
2017-10-12T00:42:06.436Z,978.5
2017-10-12T00:43:08.581Z,978.5
2017-10-12T00:44:10.572Z,978.7
2017-10-12T00:45:12.589Z,978.7
2017-10-12T00:46:14.653Z,978.5
2017-10-12T00:47:16.613Z,978.5
2017-10-12T00:48:18.904Z,978.6
2017-10-12T00:49:20.934Z,978.5
2017-10-12T00:50:22.903Z,978.4
2017-10-12T00:51:24.885Z,978.5
2017-10-12T00:52:26.852Z,978.5
2017-10-12T00:53:28.853Z,978.4
2017-10-12T00:54:30.797Z,978.5
2017-10-12T00:55:33.349Z,978.4
2017-10-12T00:56:35.351Z,978.2
2017-10-12T00:57:37.252Z,978.4
2017-10-12T00:58:39.172Z,978.3
2017-10-12T00:59:41.143Z,978.4
2017-10-12T01:00:43.067Z,978.4
2017-10-12T01:01:45.143Z,978.4
2017-10-12T01:02:47.083Z,978.4
2017-10-12T01:03:49.054Z,978.4
2017-10-12T01:04:51.002Z,978.4
2017-10-12T01:05:53.059Z,978.4
2017-10-12T01:06:55.010Z,978.4
2017-10-12T01:07:57.003Z,978.3
2017-10-12T01:08:59.024Z,978.5
2017-10-12T01:10:00.992Z,978.4
2017-10-12T01:11:02.958Z,978.4
2017-10-12T01:12:04.856Z,978.5
2017-10-12T01:13:06.906Z,978.4
2017-10-12T01:14:09.306Z,978.5
2017-10-12T01:15:11.402Z,978.5
2017-10-12T01:16:14.900Z,978.6
2017-10-12T01:17:16.912Z,978.5
2017-10-12T01:18:18.860Z,978.5
2017-10-12T01:19:21.072Z,978.5
2017-10-12T01:20:22.986Z,978.5
2017-10-12T01:21:25.275Z,978.5
2017-10-12T01:22:27.242Z,978.4
2017-10-12T01:23:29.248Z,978.5
2017-10-12T01:24:31.238Z,978.5
2017-10-12T01:25:33.290Z,978.5
2017-10-12T01:26:35.289Z,978.5
2017-10-12T01:27:37.394Z,978.5
2017-10-12T01:28:39.310Z,978.3
2017-10-12T01:29:41.364Z,978.4
2017-10-12T01:30:43.242Z,978.4
2017-10-12T01:31:45.181Z,978.4
2017-10-12T01:32:47.135Z,978.4
2017-10-12T01:33:49.042Z,978.4
2017-10-12T01:34:51.084Z,978.4
2017-10-12T01:35:52.971Z,978.4
2017-10-12T01:36:54.939Z,978.4
2017-10-12T01:37:56.985Z,978.5
2017-10-12T01:38:58.959Z,978.5
2017-10-12T01:40:00.877Z,978.5
2017-10-12T01:41:02.819Z,978.5
2017-10-12T01:42:04.686Z,978.4
2017-10-12T01:43:06.581Z,978.4
2017-10-12T01:44:08.500Z,978.4
2017-10-12T01:45:10.617Z,978.3
2017-10-12T01:46:12.574Z,978.4
2017-10-12T01:47:16.210Z,978.2
2017-10-12T01:48:18.204Z,978.4
2017-10-12T01:49:20.167Z,978.5
2017-10-12T01:50:22.194Z,978.4
2017-10-12T01:51:24.191Z,978.3
2017-10-12T01:52:26.144Z,978.4
2017-10-12T01:53:28.092Z,978.3
2017-10-12T01:54:30.008Z,978.3
2017-10-12T01:55:31.987Z,978.3
2017-10-12T01:56:33.934Z,978.3
2017-10-12T01:57:35.836Z,978.3
2017-10-12T01:58:37.687Z,978.4
2017-10-12T01:59:39.600Z,978.4
2017-10-12T02:00:41.895Z,978.4
2017-10-12T02:01:43.879Z,978.3
2017-10-12T02:02:45.798Z,978.3
2017-10-12T02:03:47.771Z,978.3
2017-10-12T02:04:49.722Z,978.3
2017-10-12T02:05:51.687Z,978.3
2017-10-12T02:06:53.560Z,978.2
2017-10-12T02:07:55.439Z,978.2
2017-10-12T02:08:57.396Z,978.2
2017-10-12T02:09:59.436Z,978.3
2017-10-12T02:11:01.326Z,978.3
2017-10-12T02:12:03.289Z,978.2
2017-10-12T02:13:05.233Z,978.2
2017-10-12T02:14:07.207Z,978.2
2017-10-12T02:15:09.124Z,978.3
2017-10-12T02:16:11.369Z,978.1
2017-10-12T02:17:13.404Z,978.1
2017-10-12T02:18:16.571Z,978.1
2017-10-12T02:19:18.852Z,978.2
2017-10-12T02:20:20.883Z,978.1
2017-10-12T02:21:23.531Z,978.1
2017-10-12T02:22:25.485Z,978.2
2017-10-12T02:23:27.439Z,978.1
2017-10-12T02:24:29.504Z,978.1
2017-10-12T02:25:31.435Z,978.2
2017-10-12T02:26:33.708Z,978
2017-10-12T02:27:35.646Z,978.2
2017-10-12T02:28:37.606Z,978.2
2017-10-12T02:29:39.603Z,978.2
2017-10-12T02:30:41.527Z,978.2
2017-10-12T02:31:43.488Z,978.1
2017-10-12T02:32:45.407Z,978.2
2017-10-12T02:33:47.346Z,978.2
2017-10-12T02:34:49.362Z,978.3
2017-10-12T02:35:51.316Z,978.2
2017-10-12T02:36:53.363Z,978.3
2017-10-12T02:37:55.354Z,978.3
2017-10-12T02:38:57.289Z,978.4
2017-10-12T02:39:59.211Z,978.4
2017-10-12T02:41:01.097Z,978.4
2017-10-12T02:42:03.057Z,978.4
2017-10-12T02:43:05.018Z,978.4
2017-10-12T02:44:06.977Z,978.3
2017-10-12T02:45:08.927Z,978.3
2017-10-12T02:46:10.929Z,978.3
2017-10-12T02:47:12.952Z,978.4
2017-10-12T02:48:16.002Z,978.3
2017-10-12T02:49:17.943Z,978.4
2017-10-12T02:50:19.884Z,978.3
2017-10-12T02:51:21.903Z,978.3
2017-10-12T02:52:24.212Z,978.3
2017-10-12T02:53:26.190Z,978.3
2017-10-12T02:54:28.106Z,978.5
2017-10-12T02:55:30.093Z,978.3
2017-10-12T02:56:32.021Z,978.3
2017-10-12T02:57:34.211Z,978.3
2017-10-12T02:58:36.176Z,978.3
2017-10-12T02:59:38.168Z,978.4
2017-10-12T03:00:40.141Z,978.3
2017-10-12T03:01:42.040Z,978.3
2017-10-12T03:02:44.414Z,978.3
2017-10-12T03:03:46.314Z,978.4
2017-10-12T03:04:48.287Z,978.5
2017-10-12T03:05:50.253Z,978.3
2017-10-12T03:06:52.242Z,978.3
2017-10-12T03:07:54.286Z,978.3
2017-10-12T03:08:56.231Z,978.3
2017-10-12T03:09:58.234Z,978.3
2017-10-12T03:11:00.182Z,978.3
2017-10-12T03:12:02.134Z,978.3
2017-10-12T03:13:04.391Z,978.4
2017-10-12T03:14:06.368Z,978.4
2017-10-12T03:15:08.349Z,978.3
2017-10-12T03:16:10.414Z,978.3
2017-10-12T03:17:12.400Z,978.3
2017-10-12T03:18:14.676Z,978.4
2017-10-12T03:19:16.791Z,978.4
2017-10-12T03:20:18.811Z,978.3
2017-10-12T03:21:20.819Z,978.3
2017-10-12T03:22:22.828Z,978.3
2017-10-12T03:23:25.113Z,978.3
2017-10-12T03:24:27.089Z,978.3
2017-10-12T03:25:30.598Z,978.3
2017-10-12T03:26:32.555Z,978.3
2017-10-12T03:27:34.480Z,978.3
2017-10-12T03:28:36.494Z,978.2
2017-10-12T03:29:38.778Z,978.3
2017-10-12T03:30:40.792Z,978.2
2017-10-12T03:31:42.691Z,978.3
2017-10-12T03:32:44.872Z,978.2
2017-10-12T03:33:46.886Z,978.4
2017-10-12T03:34:48.834Z,978.3
2017-10-12T03:35:50.767Z,978.2
2017-10-12T03:36:52.710Z,978.2
2017-10-12T03:37:54.639Z,978.1
2017-10-12T03:38:56.674Z,978.1
2017-10-12T03:39:58.659Z,978.2
2017-10-12T03:41:00.692Z,978.1
2017-10-12T03:42:02.693Z,978.2
2017-10-12T03:43:04.640Z,978.1
2017-10-12T03:44:06.682Z,978.1
2017-10-12T03:45:08.669Z,978.2
2017-10-12T03:46:10.592Z,978.2
2017-10-12T03:47:12.530Z,978.2
2017-10-12T03:48:16.351Z,978.3
2017-10-12T03:49:18.384Z,978.2
2017-10-12T03:50:20.429Z,978.2
2017-10-12T03:51:22.347Z,978.3
2017-10-12T03:52:24.571Z,978.3
2017-10-12T03:53:26.592Z,978.2
2017-10-12T03:54:28.709Z,978.2
2017-10-12T03:55:30.714Z,978.2
2017-10-12T03:56:32.781Z,978.3
2017-10-12T03:57:34.741Z,978.2
2017-10-12T03:58:36.742Z,978.3
2017-10-12T03:59:38.660Z,978.3
2017-10-12T04:00:40.691Z,978.3
2017-10-12T04:01:42.674Z,978.3
2017-10-12T04:02:44.550Z,978.3
2017-10-12T04:03:46.596Z,978.4
2017-10-12T04:04:49.626Z,978.3
2017-10-12T04:05:51.541Z,978.3
2017-10-12T04:06:53.497Z,978.3
2017-10-12T04:07:55.473Z,978.4
2017-10-12T04:08:57.742Z,978.4
2017-10-12T04:10:00.135Z,978.4
2017-10-12T04:11:02.152Z,978.5
2017-10-12T04:12:04.246Z,978.5
2017-10-12T04:13:06.224Z,978.5
2017-10-12T04:14:08.235Z,978.5
2017-10-12T04:15:10.565Z,978.4
2017-10-12T04:16:12.565Z,978.4
2017-10-12T04:17:16.646Z,978.5
2017-10-12T04:18:18.660Z,978.5
2017-10-12T04:19:20.665Z,978.4
2017-10-12T04:20:22.981Z,978.5
2017-10-12T04:21:24.904Z,978.5
2017-10-12T04:22:26.879Z,978.5
2017-10-12T04:23:28.791Z,978.6
2017-10-12T04:24:30.712Z,978.5
2017-10-12T04:25:32.700Z,978.6
2017-10-12T04:26:34.656Z,978.6
2017-10-12T04:27:36.646Z,978.7
2017-10-12T04:28:38.591Z,978.7
2017-10-12T04:29:40.549Z,978.6
2017-10-12T04:30:42.883Z,978.7
2017-10-12T04:31:44.818Z,978.6
2017-10-12T04:32:46.819Z,978.7
2017-10-12T04:33:48.792Z,978.7
2017-10-12T04:34:50.684Z,978.7
2017-10-12T04:35:52.662Z,978.7
2017-10-12T04:36:54.528Z,978.6
2017-10-12T04:37:56.377Z,978.7
2017-10-12T04:38:58.396Z,978.8
2017-10-12T04:40:00.466Z,978.7
2017-10-12T04:41:02.501Z,978.7
2017-10-12T04:42:04.364Z,978.8
2017-10-12T04:43:06.351Z,978.8
2017-10-12T04:44:08.312Z,978.8
2017-10-12T04:45:10.541Z,978.9
2017-10-12T04:46:12.581Z,978.9
2017-10-12T04:47:16.630Z,978.9
2017-10-12T04:48:18.576Z,978.9
2017-10-12T04:49:20.506Z,979
2017-10-12T04:50:22.493Z,978.8
2017-10-12T04:51:25.286Z,978.9
2017-10-12T04:52:27.322Z,978.8
2017-10-12T04:53:29.293Z,978.9
2017-10-12T04:54:31.284Z,978.9
2017-10-12T04:55:33.292Z,978.7
2017-10-12T04:56:35.598Z,978.8
2017-10-12T04:57:37.524Z,978.9
2017-10-12T04:58:39.480Z,978.9
2017-10-12T04:59:41.520Z,978.9
2017-10-12T05:00:43.487Z,979
2017-10-12T05:01:45.490Z,978.9
2017-10-12T05:02:47.556Z,978.9
2017-10-12T05:03:49.567Z,978.9
2017-10-12T05:04:51.484Z,978.9
2017-10-12T05:05:53.376Z,978.9
2017-10-12T05:06:55.401Z,978.9
2017-10-12T05:07:57.506Z,978.9
2017-10-12T05:08:59.542Z,978.9
2017-10-12T05:10:01.541Z,979
2017-10-12T05:11:03.558Z,979
2017-10-12T05:12:05.615Z,979.1
2017-10-12T05:13:07.667Z,979
2017-10-12T05:14:09.540Z,979
2017-10-12T05:15:11.467Z,979.1
2017-10-12T05:16:14.948Z,979.1
2017-10-12T05:17:18.534Z,979.1
2017-10-12T05:18:20.515Z,979.2
2017-10-12T05:19:22.611Z,979.2
2017-10-12T05:20:25.623Z,979.2
2017-10-12T05:21:27.783Z,979.2
2017-10-12T05:22:30.107Z,979.2
2017-10-12T05:23:32.141Z,979.3
2017-10-12T05:24:34.125Z,979.3
2017-10-12T05:25:36.005Z,979.2
2017-10-12T05:26:37.953Z,979.2
2017-10-12T05:27:40.200Z,979.2
2017-10-12T05:28:42.168Z,979.3
2017-10-12T05:29:44.149Z,979.3
2017-10-12T05:30:46.291Z,979.2
2017-10-12T05:31:48.280Z,979.3
2017-10-12T05:32:50.566Z,979.3
2017-10-12T05:33:52.634Z,979.3
2017-10-12T05:34:54.623Z,979.4
2017-10-12T05:35:56.595Z,979.3
2017-10-12T05:36:58.596Z,979.3
2017-10-12T05:38:00.852Z,979.4
2017-10-12T05:39:02.818Z,979.5
2017-10-12T05:40:04.875Z,979.5
2017-10-12T05:41:06.848Z,979.4
2017-10-12T05:42:08.777Z,979.4
2017-10-12T05:43:10.747Z,979.4
2017-10-12T05:44:12.755Z,979.4
2017-10-12T05:45:16.172Z,979.5
2017-10-12T05:46:18.185Z,979.5
2017-10-12T05:47:20.166Z,979.4
2017-10-12T05:48:22.578Z,979.4
2017-10-12T05:49:24.645Z,979.6
2017-10-12T05:50:26.688Z,979.5
2017-10-12T05:51:28.674Z,979.6
2017-10-12T05:52:30.707Z,979.6
2017-10-12T05:53:32.705Z,979.6
2017-10-12T05:54:34.669Z,979.5
2017-10-12T05:55:36.711Z,979.5
2017-10-12T05:56:39.102Z,979.6
2017-10-12T05:57:41.010Z,979.7
2017-10-12T05:58:43.329Z,979.8
2017-10-12T05:59:45.247Z,979.7
2017-10-12T06:00:47.214Z,979.8
2017-10-12T06:01:49.230Z,979.9
2017-10-12T06:02:51.219Z,979.9
2017-10-12T06:03:53.451Z,979.8
2017-10-12T06:04:55.444Z,979.8
2017-10-12T06:05:57.441Z,979.9
2017-10-12T06:06:59.382Z,979.9
2017-10-12T06:08:01.414Z,979.9
2017-10-12T06:09:03.422Z,979.9
2017-10-12T06:10:05.389Z,979.9
2017-10-12T06:11:07.320Z,980
2017-10-12T06:12:09.236Z,980
2017-10-12T06:13:11.562Z,980.1
2017-10-12T06:14:15.511Z,980.1
2017-10-12T06:15:17.423Z,980.1
2017-10-12T06:16:19.418Z,980.2
2017-10-12T06:17:21.366Z,980.1
2017-10-12T06:18:23.316Z,980.2
2017-10-12T06:19:25.934Z,980.2
2017-10-12T06:20:27.830Z,980.2
2017-10-12T06:21:29.757Z,980.2
2017-10-12T06:22:31.744Z,980.2
2017-10-12T06:23:33.685Z,980.2
2017-10-12T06:24:35.584Z,980.2
2017-10-12T06:25:37.488Z,980.2
2017-10-12T06:26:39.370Z,980.2
2017-10-12T06:27:41.309Z,980.3
2017-10-12T06:28:44.126Z,980.2
2017-10-12T06:29:46.058Z,980.3
2017-10-12T06:30:47.985Z,980.2
2017-10-12T06:31:50.274Z,980.3
2017-10-12T06:32:52.183Z,980.2
2017-10-12T06:33:54.117Z,980.3
2017-10-12T06:34:56.129Z,980.3
2017-10-12T06:35:58.059Z,980.3
2017-10-12T06:36:59.954Z,980.4
2017-10-12T06:38:01.825Z,980.4
2017-10-12T06:39:03.685Z,980.4
2017-10-12T06:40:05.651Z,980.4
2017-10-12T06:41:07.605Z,980.3
2017-10-12T06:42:09.490Z,980.5
2017-10-12T06:43:11.524Z,980.5
2017-10-12T06:44:13.466Z,980.5
2017-10-12T06:45:15.456Z,980.6
2017-10-12T06:46:17.440Z,980.6
2017-10-12T06:47:19.395Z,980.5
2017-10-12T06:48:21.416Z,980.5
2017-10-12T06:49:23.329Z,980.6
2017-10-12T06:50:25.251Z,980.7
2017-10-12T06:51:27.174Z,980.6
2017-10-12T06:52:29.067Z,980.7
2017-10-12T06:53:30.948Z,980.6
2017-10-12T06:54:32.870Z,980.6
2017-10-12T06:55:34.819Z,980.8
2017-10-12T06:56:36.708Z,980.9
2017-10-12T06:57:38.644Z,980.9
2017-10-12T06:58:40.571Z,981
2017-10-12T06:59:42.530Z,981.1
2017-10-12T07:00:44.803Z,981.2
2017-10-12T07:01:46.744Z,981.1
2017-10-12T07:02:48.676Z,981.2
2017-10-12T07:03:50.530Z,981.3
2017-10-12T07:04:52.475Z,981.2
2017-10-12T07:05:54.478Z,981.2
2017-10-12T07:06:56.478Z,981.1
2017-10-12T07:07:58.450Z,981.2
2017-10-12T07:09:00.361Z,981.3
2017-10-12T07:10:02.330Z,981.2
2017-10-12T07:11:04.291Z,981.3
2017-10-12T07:12:06.198Z,981.3
2017-10-12T07:13:11.925Z,981.3
2017-10-12T07:14:13.854Z,981.3
2017-10-12T07:15:15.804Z,981.3
2017-10-12T07:16:17.793Z,981.4
2017-10-12T07:17:19.662Z,981.4
2017-10-12T07:18:21.636Z,981.4
2017-10-12T07:19:23.571Z,981.4
2017-10-12T07:20:25.437Z,981.4
2017-10-12T07:21:27.464Z,981.4
2017-10-12T07:22:29.492Z,981.4
2017-10-12T07:23:31.466Z,981.4
2017-10-12T07:24:33.393Z,981.5
2017-10-12T07:25:35.319Z,981.5
2017-10-12T07:26:37.518Z,981.6
2017-10-12T07:27:39.481Z,981.6
2017-10-12T07:28:41.441Z,981.6
2017-10-12T07:29:43.317Z,981.6
2017-10-12T07:30:45.230Z,981.6
2017-10-12T07:31:47.159Z,981.6
2017-10-12T07:32:49.108Z,981.7
2017-10-12T07:33:51.081Z,981.8
2017-10-12T07:34:52.992Z,981.7
2017-10-12T07:35:54.888Z,981.7
2017-10-12T07:36:57.011Z,981.8
2017-10-12T07:37:59.053Z,981.9
2017-10-12T07:39:01.078Z,981.9
2017-10-12T07:40:03.067Z,981.8
2017-10-12T07:41:05.026Z,981.9
2017-10-12T07:42:06.976Z,981.9
2017-10-12T07:43:08.885Z,982
2017-10-12T07:44:10.804Z,981.9
2017-10-12T07:45:12.701Z,982
2017-10-12T07:46:14.573Z,982
2017-10-12T07:47:16.723Z,982
2017-10-12T07:48:18.633Z,982.1
2017-10-12T07:49:20.534Z,982
2017-10-12T07:50:22.529Z,982
2017-10-12T07:51:24.402Z,982
2017-10-12T07:52:26.347Z,982.1
2017-10-12T07:53:28.268Z,982.1
2017-10-12T07:54:30.204Z,982
2017-10-12T07:55:32.200Z,982.1
2017-10-12T07:56:34.094Z,982
2017-10-12T07:57:35.968Z,982.1
2017-10-12T07:58:37.991Z,982
2017-10-12T07:59:39.905Z,982.1
2017-10-12T08:00:41.831Z,982.1
2017-10-12T08:01:43.716Z,982
2017-10-12T08:02:45.896Z,982.1
2017-10-12T08:03:47.884Z,982
2017-10-12T08:04:49.797Z,981.9
2017-10-12T08:05:51.694Z,982
2017-10-12T08:06:53.683Z,982
2017-10-12T08:07:55.622Z,982.1
2017-10-12T08:08:57.584Z,982.1
2017-10-12T08:09:59.537Z,982.1
2017-10-12T08:11:01.487Z,982.3
2017-10-12T08:12:03.379Z,982.3
2017-10-12T08:13:05.337Z,982.4
2017-10-12T08:14:07.306Z,982.4
2017-10-12T08:15:09.250Z,982.2
2017-10-12T08:16:11.181Z,982.5
2017-10-12T08:17:13.166Z,982.6
2017-10-12T08:18:15.156Z,982.6
2017-10-12T08:19:17.105Z,982.6
2017-10-12T08:20:19.068Z,982.7
2017-10-12T08:21:20.951Z,982.6
2017-10-12T08:22:23.005Z,982.8
2017-10-12T08:23:25.396Z,982.7
2017-10-12T08:24:27.334Z,982.8
2017-10-12T08:25:29.229Z,982.8
2017-10-12T08:26:31.161Z,982.8
2017-10-12T08:27:33.102Z,982.8
2017-10-12T08:28:34.987Z,982.7
2017-10-12T08:29:36.889Z,982.6
2017-10-12T08:30:38.770Z,982.7
2017-10-12T08:31:40.784Z,982.9
2017-10-12T08:32:42.749Z,982.9
2017-10-12T08:33:44.785Z,982.8
2017-10-12T08:34:46.765Z,982.9
2017-10-12T08:35:48.726Z,982.8
2017-10-12T08:36:50.693Z,982.8
2017-10-12T08:37:52.674Z,982.9
2017-10-12T08:38:54.748Z,982.9
2017-10-12T08:39:56.702Z,982.8
2017-10-12T08:40:58.614Z,982.8
2017-10-12T08:42:00.621Z,982.8
2017-10-12T08:43:02.542Z,983
2017-10-12T08:44:04.502Z,982.9
2017-10-12T08:45:06.494Z,982.8
2017-10-12T08:46:08.422Z,982.9
2017-10-12T08:47:10.402Z,983.1
2017-10-12T08:48:12.363Z,983.1
2017-10-12T08:49:14.516Z,983
2017-10-12T08:50:16.496Z,982.9
2017-10-12T08:51:18.386Z,983
2017-10-12T08:52:20.386Z,983
2017-10-12T08:53:22.403Z,982.7
2017-10-12T08:54:24.384Z,982.7
2017-10-12T08:55:26.355Z,982.6
2017-10-12T08:56:28.412Z,982.8
2017-10-12T08:57:30.337Z,982.7
2017-10-12T08:58:32.298Z,982.7
2017-10-12T08:59:34.704Z,982.8
2017-10-12T09:00:36.639Z,982.7
2017-10-12T09:01:38.547Z,982.9
2017-10-12T09:02:40.558Z,983.1
2017-10-12T09:03:42.543Z,983.2
2017-10-12T09:04:44.529Z,983.1
2017-10-12T09:05:46.464Z,983.2
2017-10-12T09:06:48.380Z,983.1
2017-10-12T09:07:50.283Z,983.3
2017-10-12T09:08:52.173Z,983.1
2017-10-12T09:09:54.195Z,983.4
2017-10-12T09:10:56.086Z,983.2
2017-10-12T09:11:58.005Z,983.3
2017-10-12T09:12:59.969Z,983.4
2017-10-12T09:14:01.937Z,983.3
2017-10-12T09:15:03.942Z,983.4
2017-10-12T09:16:05.819Z,983.4
2017-10-12T09:17:07.718Z,983.3
2017-10-12T09:18:09.721Z,983.2
2017-10-12T09:19:11.620Z,983.2
2017-10-12T09:20:13.553Z,983.3
2017-10-12T09:21:15.488Z,983.3
2017-10-12T09:22:17.411Z,983.1
2017-10-12T09:23:19.449Z,982.9
2017-10-12T09:24:21.379Z,983
2017-10-12T09:25:23.319Z,983
2017-10-12T09:26:26.014Z,983.2
2017-10-12T09:27:27.936Z,983.1
2017-10-12T09:28:29.941Z,983.1
2017-10-12T09:29:31.931Z,983.2
2017-10-12T09:30:34.167Z,983.2
2017-10-12T09:31:36.134Z,983.5
2017-10-12T09:32:38.074Z,983.4
2017-10-12T09:33:40.158Z,983.2
2017-10-12T09:34:42.232Z,983.1
2017-10-12T09:35:44.500Z,983.7
2017-10-12T09:36:46.418Z,983.8
2017-10-12T09:37:48.356Z,983.9
2017-10-12T09:38:50.305Z,983.9
2017-10-12T09:39:52.238Z,983.9
2017-10-12T09:40:54.563Z,983.9
2017-10-12T09:41:56.520Z,983.4
2017-10-12T09:42:58.423Z,983.3
2017-10-12T09:44:00.408Z,983.3
2017-10-12T09:45:02.375Z,983.2
2017-10-12T09:46:04.418Z,983.7
2017-10-12T09:47:06.365Z,983.6
2017-10-12T09:48:08.333Z,983.3
2017-10-12T09:49:10.333Z,983.4
2017-10-12T09:50:12.292Z,983.5
2017-10-12T09:51:14.467Z,983.4
2017-10-12T09:52:16.375Z,983.4
2017-10-12T09:53:18.369Z,983.5
2017-10-12T09:54:20.554Z,983.5
2017-10-12T09:55:22.538Z,983.4
2017-10-12T09:56:24.548Z,983.2
2017-10-12T09:57:26.581Z,983.2
2017-10-12T09:58:28.506Z,983.4
2017-10-12T09:59:30.465Z,983.5
2017-10-12T10:00:32.458Z,983.5
2017-10-12T10:01:34.463Z,983.4
2017-10-12T10:02:36.410Z,983.4
2017-10-12T10:03:38.290Z,983.5
2017-10-12T10:04:40.257Z,983.4
2017-10-12T10:05:42.176Z,983.3
2017-10-12T10:06:44.087Z,983.5
2017-10-12T10:07:45.995Z,983.5
2017-10-12T10:08:47.883Z,983.4
2017-10-12T10:09:49.810Z,983.4
2017-10-12T10:10:51.763Z,983.4
2017-10-12T10:11:54.258Z,983.5
2017-10-12T10:12:56.162Z,983.4
2017-10-12T10:13:58.123Z,983.5
2017-10-12T10:15:00.016Z,983.4
2017-10-12T10:16:01.898Z,983.5
2017-10-12T10:17:03.910Z,983.4
2017-10-12T10:18:05.837Z,983.5
2017-10-12T10:19:07.754Z,983.4
2017-10-12T10:20:09.649Z,983.6
2017-10-12T10:21:11.536Z,983.5
2017-10-12T10:22:13.786Z,983.5
2017-10-12T10:23:15.715Z,983.5
2017-10-12T10:24:17.632Z,983.6
2017-10-12T10:25:19.599Z,983.5
2017-10-12T10:26:21.689Z,983.6
2017-10-12T10:27:23.980Z,983.7
2017-10-12T10:28:25.924Z,983.7
2017-10-12T10:29:27.903Z,983.7
2017-10-12T10:30:29.818Z,983.6
2017-10-12T10:31:31.749Z,983.4
2017-10-12T10:32:33.669Z,983.6
2017-10-12T10:33:35.578Z,983.7
2017-10-12T10:34:37.690Z,983.7
2017-10-12T10:35:39.609Z,983.7
2017-10-12T10:36:41.619Z,983.7
2017-10-12T10:37:43.518Z,983.5
2017-10-12T10:38:45.544Z,983.7
2017-10-12T10:39:47.498Z,983.7
2017-10-12T10:40:49.487Z,983.6
2017-10-12T10:41:51.473Z,983.6
2017-10-12T10:42:53.409Z,983.5
2017-10-12T10:43:55.373Z,983.6
2017-10-12T10:44:57.337Z,983.6
2017-10-12T10:45:59.239Z,983.8
2017-10-12T10:47:02.080Z,983.7
2017-10-12T10:48:04.066Z,983.7
2017-10-12T10:49:06.037Z,983.7
2017-10-12T10:50:08.209Z,983.8
2017-10-12T10:51:10.140Z,983.7
2017-10-12T10:52:12.057Z,983.7
2017-10-12T10:53:14.003Z,983.8
2017-10-12T10:54:15.962Z,983.6
2017-10-12T10:55:17.822Z,983.7
2017-10-12T10:56:21.144Z,983.7
2017-10-12T10:57:23.138Z,983.7
2017-10-12T10:58:26.165Z,983.6
2017-10-12T10:59:29.421Z,983.7
2017-10-12T11:00:31.373Z,983.6
2017-10-12T11:01:33.256Z,983.7
2017-10-12T11:02:35.182Z,983.8
2017-10-12T11:03:37.124Z,983.7
2017-10-12T11:04:39.017Z,983.7
2017-10-12T11:05:40.933Z,983.7
2017-10-12T11:06:42.804Z,983.7
2017-10-12T11:07:44.705Z,983.7
2017-10-12T11:08:46.680Z,983.7
2017-10-12T11:09:48.857Z,983.8
2017-10-12T11:10:50.779Z,983.6
2017-10-12T11:11:52.701Z,983.8
2017-10-12T11:12:54.658Z,983.8
2017-10-12T11:13:56.626Z,983.8
2017-10-12T11:14:58.591Z,983.9
2017-10-12T11:16:00.486Z,983.7
2017-10-12T11:17:02.389Z,983.8
2017-10-12T11:18:04.421Z,983.7
2017-10-12T11:19:06.325Z,983.8
2017-10-12T11:20:08.236Z,983.7
2017-10-12T11:21:10.150Z,983.8
2017-10-12T11:22:12.052Z,983.7
2017-10-12T11:23:13.955Z,983.8
2017-10-12T11:24:15.874Z,983.9
2017-10-12T11:25:17.781Z,984
2017-10-12T11:26:19.812Z,983.9
2017-10-12T11:27:21.764Z,983.8
2017-10-12T11:28:23.718Z,983.9
2017-10-12T11:29:25.600Z,983.9
2017-10-12T11:30:27.497Z,983.9
2017-10-12T11:31:29.388Z,983.9
2017-10-12T11:32:31.234Z,984.1
2017-10-12T11:33:33.133Z,984
2017-10-12T11:34:35.131Z,984
2017-10-12T11:35:37.034Z,984.1
2017-10-12T11:36:39.006Z,984.1
2017-10-12T11:37:40.956Z,984.1
2017-10-12T11:38:42.809Z,984.1
2017-10-12T11:39:44.803Z,984.1
2017-10-12T11:40:46.736Z,984.1
2017-10-12T11:41:48.644Z,984.1
2017-10-12T11:42:50.578Z,984.2
2017-10-12T11:43:52.601Z,984.1
2017-10-12T11:44:54.546Z,984.2
2017-10-12T11:45:56.497Z,984.4
2017-10-12T11:46:58.365Z,984.3
2017-10-12T11:48:00.214Z,984.3
2017-10-12T11:49:02.134Z,984.2
2017-10-12T11:50:04.072Z,984.3
2017-10-12T11:51:05.966Z,984.4
2017-10-12T11:52:07.844Z,984.4
2017-10-12T11:53:09.682Z,984.4
2017-10-12T11:54:11.639Z,984.5
2017-10-12T11:55:13.645Z,984.4
2017-10-12T11:56:15.561Z,984.5
2017-10-12T11:57:17.527Z,984.5
2017-10-12T11:58:19.396Z,984.6
2017-10-12T11:59:21.275Z,984.4
2017-10-12T12:00:23.210Z,984.4
2017-10-12T12:01:25.124Z,984.4
2017-10-12T12:02:27.021Z,984.5
2017-10-12T12:03:29.008Z,984.4
2017-10-12T12:04:30.902Z,984.6
2017-10-12T12:05:32.871Z,984.6
2017-10-12T12:06:34.832Z,984.6
2017-10-12T12:07:36.702Z,984.5
2017-10-12T12:08:38.589Z,984.4
2017-10-12T12:09:40.500Z,984.4
2017-10-12T12:10:42.509Z,984.4
2017-10-12T12:11:44.585Z,984.6
2017-10-12T12:12:46.525Z,984.5
2017-10-12T12:13:48.392Z,984.5
2017-10-12T12:14:50.420Z,984.5
2017-10-12T12:15:52.483Z,984.6
2017-10-12T12:16:54.441Z,984.5
2017-10-12T12:17:56.392Z,984.5
2017-10-12T12:18:58.321Z,984.4
2017-10-12T12:20:00.229Z,984.4
2017-10-12T12:21:02.269Z,984.4
2017-10-12T12:22:04.238Z,984.4
2017-10-12T12:23:06.291Z,984.4
2017-10-12T12:24:08.202Z,984.5
2017-10-12T12:25:10.117Z,984.5
2017-10-12T12:26:12.087Z,984.4
2017-10-12T12:27:14.064Z,984.4
2017-10-12T12:28:16.120Z,984.4
2017-10-12T12:29:18.375Z,984.4
2017-10-12T12:30:20.327Z,984.4
2017-10-12T12:31:22.265Z,984.3
2017-10-12T12:32:24.243Z,984.4
2017-10-12T12:33:26.384Z,984.5
2017-10-12T12:34:28.427Z,984.5
2017-10-12T12:35:30.388Z,984.4
2017-10-12T12:36:32.364Z,984.4
2017-10-12T12:37:34.294Z,984.3
2017-10-12T12:38:36.344Z,984.4
2017-10-12T12:39:38.378Z,984.4
2017-10-12T12:40:40.514Z,984.4
2017-10-12T12:41:42.593Z,984.5
2017-10-12T12:42:44.531Z,984.5
2017-10-12T12:43:46.627Z,984.5
2017-10-12T12:44:48.613Z,984.5
2017-10-12T12:45:50.543Z,984.4
2017-10-12T12:46:52.496Z,984.4
2017-10-12T12:47:54.356Z,984.5
2017-10-12T12:48:56.368Z,984.5
2017-10-12T12:49:58.259Z,984.6
2017-10-12T12:51:00.179Z,984.5
2017-10-12T12:52:02.154Z,984.5
2017-10-12T12:53:04.165Z,984.5
2017-10-12T12:54:06.256Z,984.5
2017-10-12T12:55:08.173Z,984.5
2017-10-12T12:56:10.103Z,984.6
2017-10-12T12:57:12.096Z,984.6
2017-10-12T12:58:14.250Z,984.7
2017-10-12T12:59:16.180Z,984.6
2017-10-12T13:00:18.097Z,984.8
2017-10-12T13:01:20.024Z,984.7
2017-10-12T13:02:21.961Z,984.7
2017-10-12T13:03:23.903Z,984.7
2017-10-12T13:04:26.053Z,984.7
2017-10-12T13:06:30.019Z,984.7
2017-10-12T13:07:31.975Z,984.7
2017-10-12T13:08:33.896Z,984.7
2017-10-12T13:09:35.919Z,984.7
2017-10-12T13:10:38.033Z,984.7
2017-10-12T13:11:39.999Z,984.7
2017-10-12T13:12:41.903Z,984.8
2017-10-12T13:13:44.034Z,984.7
2017-10-12T13:14:46.173Z,984.7
2017-10-12T13:15:48.412Z,984.7
2017-10-12T13:16:50.439Z,984.7
2017-10-12T13:17:52.600Z,984.7
2017-10-12T13:18:54.833Z,984.8
2017-10-12T13:19:56.980Z,984.8
2017-10-12T13:20:59.197Z,984.8
2017-10-12T13:22:01.285Z,984.8